createdAt,value
2019-03-06T00:01:22.747Z,9.35
2019-03-06T00:03:50.205Z,9.46
2019-03-06T00:06:17.781Z,9.32
2019-03-06T00:08:45.306Z,9.26
2019-03-06T00:11:12.808Z,8.93
2019-03-06T00:13:40.257Z,8.88
2019-03-06T00:16:07.903Z,8.95
2019-03-06T00:18:35.249Z,9.05
2019-03-06T00:21:03.296Z,9.00
2019-03-06T00:23:30.755Z,9.12
2019-03-06T00:25:58.377Z,9.14
2019-03-06T00:28:25.813Z,8.98
2019-03-06T00:30:53.354Z,9.07
2019-03-06T00:33:20.933Z,9.14
2019-03-06T00:35:49.611Z,9.06
2019-03-06T00:38:17.067Z,8.89
2019-03-06T00:40:49.825Z,8.82
2019-03-06T00:43:17.242Z,8.86
2019-03-06T00:45:44.949Z,8.77
2019-03-06T00:48:12.402Z,8.68
2019-03-06T00:50:39.925Z,8.44
2019-03-06T00:53:07.324Z,8.42
2019-03-06T00:55:34.765Z,8.32
2019-03-06T00:58:02.317Z,8.44
2019-03-06T01:00:29.762Z,8.43
2019-03-06T01:02:57.199Z,8.29
2019-03-06T01:05:25.039Z,8.08
2019-03-06T01:07:52.403Z,7.93
2019-03-06T01:10:20.049Z,7.86
2019-03-06T01:12:47.618Z,7.87
2019-03-06T01:15:15.224Z,7.80
2019-03-06T01:17:42.793Z,7.73
2019-03-06T01:20:10.535Z,7.60
2019-03-06T01:22:38.015Z,7.55
2019-03-06T01:25:06.095Z,7.51
2019-03-06T01:27:33.466Z,7.44
2019-03-06T01:30:00.963Z,7.33
2019-03-06T01:32:29.003Z,7.37
2019-03-06T01:35:14.796Z,7.35
2019-03-06T01:37:53.461Z,7.40
2019-03-06T01:40:34.496Z,7.34
2019-03-06T01:43:08.022Z,7.31
2019-03-06T01:45:35.456Z,7.19
2019-03-06T01:48:02.905Z,7.08
2019-03-06T01:50:30.566Z,7.00
2019-03-06T01:52:58.008Z,6.97
2019-03-06T01:55:25.377Z,7.15
2019-03-06T01:57:52.932Z,7.07
2019-03-06T02:00:21.044Z,7.09
2019-03-06T02:02:48.746Z,7.10
2019-03-06T02:05:16.647Z,7.23
2019-03-06T02:07:44.335Z,7.43
2019-03-06T02:10:12.540Z,7.42
2019-03-06T02:12:39.999Z,7.35
2019-03-06T02:15:08.644Z,7.37
2019-03-06T02:17:36.324Z,7.36
2019-03-06T02:20:04.962Z,7.35
2019-03-06T02:22:32.510Z,7.38
2019-03-06T02:24:59.960Z,7.35
2019-03-06T02:27:27.445Z,7.41
2019-03-06T02:29:55.020Z,7.24
2019-03-06T02:32:22.518Z,7.21
2019-03-06T02:34:49.992Z,7.45
2019-03-06T02:37:17.409Z,7.31
2019-03-06T02:39:44.873Z,7.02
2019-03-06T02:42:12.321Z,6.91
2019-03-06T02:44:40.232Z,6.72
2019-03-06T02:47:07.743Z,6.70
2019-03-06T02:49:35.188Z,6.60
2019-03-06T02:52:02.664Z,6.60
2019-03-06T02:54:30.102Z,6.58
2019-03-06T02:56:57.559Z,6.60
2019-03-06T02:59:34.242Z,6.63
2019-03-06T03:02:27.453Z,6.66
2019-03-06T03:05:20.796Z,6.59
2019-03-06T03:07:48.290Z,6.59
2019-03-06T03:10:15.819Z,6.59
2019-03-06T03:12:43.291Z,6.63
2019-03-06T03:15:10.842Z,6.77
2019-03-06T03:17:38.268Z,6.89
2019-03-06T03:20:05.932Z,6.86
2019-03-06T03:22:33.453Z,6.89
2019-03-06T03:25:00.933Z,6.84
2019-03-06T03:27:28.405Z,6.74
2019-03-06T03:29:55.988Z,6.80
2019-03-06T03:32:23.502Z,6.81
2019-03-06T03:34:50.951Z,6.78
2019-03-06T03:37:18.323Z,6.92
2019-03-06T03:39:45.770Z,6.89
2019-03-06T03:42:13.262Z,6.77
2019-03-06T03:44:40.658Z,6.97
2019-03-06T03:47:08.111Z,6.92
2019-03-06T03:49:35.593Z,7.09
2019-03-06T03:52:03.073Z,7.10
2019-03-06T03:54:30.490Z,6.98
2019-03-06T03:56:57.881Z,6.83
2019-03-06T03:59:25.559Z,6.86
2019-03-06T04:01:53.247Z,6.86
2019-03-06T04:04:20.782Z,6.98
2019-03-06T04:06:48.424Z,6.79
2019-03-06T04:09:15.975Z,6.65
2019-03-06T04:11:43.361Z,6.52
2019-03-06T04:14:11.291Z,6.57
2019-03-06T04:16:38.731Z,6.75
2019-03-06T04:19:06.308Z,6.70
2019-03-06T04:21:33.867Z,6.65
2019-03-06T04:24:01.474Z,6.73
2019-03-06T04:26:29.211Z,6.87
2019-03-06T04:28:56.975Z,6.99
2019-03-06T04:31:24.446Z,7.14
2019-03-06T04:33:51.820Z,7.02
2019-03-06T04:36:19.247Z,6.93
2019-03-06T04:38:46.689Z,6.84
2019-03-06T04:41:14.258Z,6.93
2019-03-06T04:43:41.949Z,6.82
2019-03-06T04:46:09.501Z,6.79
2019-03-06T04:48:36.924Z,6.73
2019-03-06T04:51:04.306Z,6.88
2019-03-06T04:53:31.751Z,7.04
2019-03-06T04:55:59.193Z,6.98
2019-03-06T04:58:26.615Z,6.97
2019-03-06T05:00:54.191Z,6.73
2019-03-06T05:03:21.726Z,6.69
2019-03-06T05:05:49.241Z,6.49
2019-03-06T05:08:16.613Z,6.24
2019-03-06T05:10:44.256Z,6.08
2019-03-06T05:13:11.713Z,5.96
2019-03-06T05:15:39.273Z,6.00
2019-03-06T05:18:20.592Z,5.86
2019-03-06T05:20:48.094Z,5.60
2019-03-06T05:23:15.647Z,5.56
2019-03-06T05:25:43.152Z,5.85
2019-03-06T05:28:10.661Z,6.00
2019-03-06T05:30:38.169Z,6.10
2019-03-06T05:33:06.639Z,6.07
2019-03-06T05:36:17.689Z,6.21
2019-03-06T05:39:01.278Z,6.28
2019-03-06T05:41:28.836Z,6.23
2019-03-06T05:43:56.794Z,6.34
2019-03-06T05:46:24.286Z,6.55
2019-03-06T05:48:52.252Z,6.35
2019-03-06T05:51:19.933Z,6.42
2019-03-06T05:53:47.987Z,6.53
2019-03-06T05:56:15.509Z,6.87
2019-03-06T05:58:42.984Z,7.01
2019-03-06T06:01:10.516Z,7.16
2019-03-06T06:03:37.918Z,7.30
2019-03-06T06:06:05.518Z,7.49
2019-03-06T06:08:33.077Z,7.80
2019-03-06T06:11:00.654Z,7.97
2019-03-06T06:13:28.121Z,8.18
2019-03-06T06:15:55.800Z,8.14
2019-03-06T06:18:23.333Z,8.20
2019-03-06T06:21:00.564Z,8.39
2019-03-06T06:23:43.786Z,8.39
2019-03-06T06:26:11.380Z,8.35
2019-03-06T06:28:39.063Z,8.64
2019-03-06T06:31:06.578Z,8.73
2019-03-06T06:33:34.546Z,8.77
2019-03-06T06:36:01.974Z,8.79
2019-03-06T06:38:29.412Z,8.91
2019-03-06T06:40:56.867Z,9.26
2019-03-06T06:43:24.380Z,9.26
2019-03-06T06:45:51.841Z,9.30
2019-03-06T06:48:20.745Z,9.30
2019-03-06T06:51:01.647Z,9.49
2019-03-06T06:54:06.216Z,9.54
2019-03-06T06:57:13.302Z,9.52
2019-03-06T07:00:14.810Z,9.70
2019-03-06T07:03:39.745Z,9.82
2019-03-06T07:06:26.715Z,9.79
2019-03-06T07:09:06.829Z,9.91
2019-03-06T07:11:41.598Z,9.80
2019-03-06T07:14:19.233Z,9.91
2019-03-06T07:17:06.230Z,10.35
2019-03-06T07:19:40.962Z,10.18
2019-03-06T07:22:46.334Z,10.41
2019-03-06T07:25:32.151Z,10.16
2019-03-06T07:28:04.599Z,9.94
2019-03-06T07:30:50.597Z,9.73
2019-03-06T07:33:37.633Z,9.49
2019-03-06T07:36:33.640Z,9.46
2019-03-06T07:39:19.530Z,9.38
2019-03-06T07:42:15.538Z,9.37
2019-03-06T07:45:37.703Z,9.29
2019-03-06T07:48:14.216Z,9.33
2019-03-06T07:50:56.885Z,9.18
2019-03-06T07:54:24.146Z,9.29
2019-03-06T07:56:55.501Z,9.51
2019-03-06T07:59:23.137Z,9.71
2019-03-06T08:01:54.302Z,9.53
2019-03-06T08:04:21.786Z,9.71
2019-03-06T08:07:02.616Z,10.05
2019-03-06T08:09:30.125Z,10.29
2019-03-06T08:12:07.152Z,10.32
2019-03-06T08:14:59.716Z,10.42
2019-03-06T08:17:32.926Z,10.51
2019-03-06T08:20:14.010Z,10.81
2019-03-06T08:23:00.911Z,10.51
2019-03-06T08:25:47.104Z,10.31
2019-03-06T08:28:14.767Z,10.15
2019-03-06T08:30:49.876Z,10.36
2019-03-06T08:33:18.382Z,10.64
2019-03-06T08:35:46.168Z,10.41
2019-03-06T08:38:13.532Z,10.36
2019-03-06T08:40:41.146Z,10.33
2019-03-06T08:43:09.889Z,10.60
2019-03-06T08:45:47.634Z,10.65
2019-03-06T08:48:26.986Z,10.77
2019-03-06T08:51:00.367Z,10.84
2019-03-06T08:53:35.322Z,10.83
2019-03-06T08:56:31.156Z,11.20
2019-03-06T08:59:06.908Z,11.53
2019-03-06T09:02:00.440Z,11.53
2019-03-06T09:04:48.673Z,11.49
2019-03-06T09:07:23.828Z,11.51
2019-03-06T09:10:01.446Z,11.40
2019-03-06T09:13:06.573Z,11.52
2019-03-06T09:15:52.462Z,11.56
2019-03-06T09:18:38.496Z,11.63
2019-03-06T09:21:13.295Z,11.52
2019-03-06T09:24:18.392Z,11.35
2019-03-06T09:26:51.822Z,11.49
2019-03-06T09:29:44.878Z,12.20
2019-03-06T09:32:43.866Z,12.29
2019-03-06T09:35:27.294Z,12.57
2019-03-06T09:38:13.022Z,12.32
2019-03-06T09:41:11.540Z,12.25
2019-03-06T09:44:04.346Z,11.82
2019-03-06T09:46:54.297Z,11.79
2019-03-06T09:49:34.087Z,11.74
2019-03-06T09:52:14.056Z,11.58
2019-03-06T09:54:59.620Z,11.47
2019-03-06T09:57:36.600Z,11.44
2019-03-06T10:00:34.209Z,11.48
2019-03-06T10:03:14.428Z,11.54
2019-03-06T10:06:07.668Z,11.58
2019-03-06T10:08:41.670Z,11.56
2019-03-06T10:11:31.517Z,11.75
2019-03-06T10:14:04.045Z,11.91
2019-03-06T10:16:53.805Z,12.18
2019-03-06T10:19:29.600Z,12.67
2019-03-06T10:21:59.202Z,13.22
2019-03-06T10:24:26.862Z,13.47
2019-03-06T10:26:54.250Z,13.91
2019-03-06T10:29:22.068Z,14.28
2019-03-06T10:31:49.602Z,14.66
2019-03-06T10:34:17.418Z,15.03
2019-03-06T10:36:44.833Z,15.27
2019-03-06T10:39:14.936Z,15.55
2019-03-06T10:41:42.492Z,15.51
2019-03-06T10:44:10.331Z,15.72
2019-03-06T10:46:37.902Z,15.86
2019-03-06T10:49:05.518Z,15.84
2019-03-06T10:51:33.091Z,16.02
2019-03-06T10:54:00.606Z,16.38
2019-03-06T10:56:28.509Z,16.39
2019-03-06T10:58:56.947Z,16.19
2019-03-06T11:01:24.604Z,16.30
2019-03-06T11:04:08.789Z,16.36
2019-03-06T11:06:36.553Z,16.46
2019-03-06T11:09:07.785Z,16.49
2019-03-06T11:11:35.359Z,16.72
2019-03-06T11:14:06.472Z,17.02
2019-03-06T11:16:38.294Z,17.03
2019-03-06T11:19:03.390Z,17.38
2019-03-06T11:21:30.916Z,17.62
2019-03-06T11:23:58.374Z,17.58
2019-03-06T11:26:26.725Z,17.35
2019-03-06T11:28:54.285Z,17.54
2019-03-06T11:31:22.062Z,17.38
2019-03-06T11:33:49.508Z,17.33
2019-03-06T11:36:17.586Z,17.72
2019-03-06T11:38:45.084Z,17.90
2019-03-06T11:41:12.571Z,17.82
2019-03-06T11:43:40.225Z,18.00
2019-03-06T11:46:08.539Z,17.92
2019-03-06T11:48:36.245Z,17.96
2019-03-06T11:51:04.103Z,17.82
2019-03-06T11:53:32.950Z,17.65
2019-03-06T11:56:00.813Z,17.89
2019-03-06T11:58:28.411Z,18.04
2019-03-06T12:00:56.008Z,18.09
2019-03-06T12:03:23.787Z,17.80
2019-03-06T12:05:51.618Z,17.84
2019-03-06T12:08:19.545Z,17.69
2019-03-06T12:10:47.444Z,16.97
2019-03-06T12:13:15.930Z,16.79
2019-03-06T12:15:45.994Z,16.51
2019-03-06T12:18:14.230Z,16.36
2019-03-06T12:20:42.213Z,16.33
2019-03-06T12:23:09.652Z,16.54
2019-03-06T12:25:37.910Z,16.75
2019-03-06T12:28:07.061Z,16.57
2019-03-06T12:30:34.904Z,17.01
2019-03-06T12:33:02.731Z,17.16
2019-03-06T12:35:30.132Z,17.41
2019-03-06T12:37:57.690Z,17.23
2019-03-06T12:40:25.800Z,17.16
2019-03-06T12:42:53.220Z,17.00
2019-03-06T12:45:20.928Z,16.66
2019-03-06T12:47:55.211Z,16.69
2019-03-06T12:50:20.405Z,16.81
2019-03-06T12:52:47.983Z,17.01
2019-03-06T12:55:15.541Z,16.96
2019-03-06T12:57:43.052Z,16.69
2019-03-06T13:00:17.775Z,16.43
2019-03-06T13:02:45.599Z,16.55
2019-03-06T13:05:13.554Z,16.48
2019-03-06T13:07:41.072Z,16.71
2019-03-06T13:10:09.733Z,16.83
2019-03-06T13:12:38.242Z,17.04
2019-03-06T13:15:07.348Z,17.02
2019-03-06T13:17:36.380Z,17.05
2019-03-06T13:20:06.439Z,16.63
2019-03-06T13:22:34.022Z,16.72
2019-03-06T13:25:01.635Z,16.53
2019-03-06T13:27:29.074Z,16.42
2019-03-06T13:29:56.649Z,16.85
2019-03-06T13:32:27.198Z,17.32
2019-03-06T13:34:59.639Z,17.54
2019-03-06T13:37:27.191Z,17.55
2019-03-06T13:39:54.724Z,17.21
2019-03-06T13:42:22.274Z,16.77
2019-03-06T13:44:49.796Z,16.59
2019-03-06T13:47:17.413Z,16.74
2019-03-06T13:49:44.857Z,16.67
2019-03-06T13:52:12.656Z,16.54
2019-03-06T13:54:40.135Z,16.84
2019-03-06T13:57:07.835Z,17.38
2019-03-06T13:59:35.357Z,17.32
2019-03-06T14:02:02.952Z,17.20
2019-03-06T14:04:31.009Z,17.40
2019-03-06T14:06:58.665Z,17.80
2019-03-06T14:09:26.512Z,17.59
2019-03-06T14:11:54.000Z,17.43
2019-03-06T14:14:21.390Z,17.18
2019-03-06T14:16:48.885Z,17.11
2019-03-06T14:19:16.408Z,16.98
2019-03-06T14:21:43.977Z,16.79
2019-03-06T14:24:11.553Z,16.83
2019-03-06T14:26:39.421Z,16.70
2019-03-06T14:29:07.089Z,16.55
2019-03-06T14:31:34.544Z,16.62
2019-03-06T14:34:02.127Z,16.95
2019-03-06T14:36:30.380Z,17.37
2019-03-06T14:38:57.927Z,17.26
2019-03-06T14:41:25.748Z,17.19
2019-03-06T14:43:53.230Z,16.97
2019-03-06T14:46:20.735Z,17.01
2019-03-06T14:48:48.258Z,16.94
2019-03-06T14:51:15.888Z,16.59
2019-03-06T14:53:43.538Z,16.43
2019-03-06T14:56:11.203Z,16.36
2019-03-06T14:58:38.759Z,16.30
2019-03-06T15:01:06.537Z,16.26
2019-03-06T15:03:33.967Z,16.58
2019-03-06T15:06:01.731Z,16.45
2019-03-06T15:08:29.572Z,16.40
2019-03-06T15:10:57.205Z,16.26
2019-03-06T15:13:24.720Z,16.27
2019-03-06T15:15:52.684Z,16.28
2019-03-06T15:18:20.535Z,16.29
2019-03-06T15:20:47.922Z,16.36
2019-03-06T15:23:15.409Z,16.24
2019-03-06T15:25:42.903Z,16.11
2019-03-06T15:28:10.601Z,16.00
2019-03-06T15:30:39.889Z,16.04
2019-03-06T15:33:07.765Z,16.03
2019-03-06T15:35:35.217Z,15.94
2019-03-06T15:38:04.491Z,15.84
2019-03-06T15:40:32.537Z,15.79
2019-03-06T15:43:00.315Z,15.72
2019-03-06T15:45:28.899Z,15.62
2019-03-06T15:47:56.777Z,15.67
2019-03-06T15:50:24.516Z,15.61
2019-03-06T15:52:52.184Z,15.68
2019-03-06T15:55:22.995Z,15.61
2019-03-06T15:57:50.454Z,15.49
2019-03-06T16:00:32.214Z,15.42
2019-03-06T16:02:59.945Z,15.27
2019-03-06T16:05:27.338Z,15.15
2019-03-06T16:07:56.488Z,15.11
2019-03-06T16:10:24.264Z,15.08
2019-03-06T16:12:51.855Z,14.97
2019-03-06T16:15:20.057Z,14.96
2019-03-06T16:17:47.527Z,14.97
2019-03-06T16:20:16.441Z,14.93
2019-03-06T16:22:44.719Z,14.82
2019-03-06T16:25:13.289Z,14.81
2019-03-06T16:27:40.879Z,14.76
2019-03-06T16:30:10.390Z,14.74
2019-03-06T16:32:37.976Z,14.70
2019-03-06T16:35:07.432Z,14.62
2019-03-06T16:37:35.462Z,14.54
2019-03-06T16:40:08.026Z,14.48
2019-03-06T16:42:35.651Z,14.46
2019-03-06T16:45:04.129Z,14.38
2019-03-06T16:47:31.697Z,14.32
2019-03-06T16:49:59.175Z,14.28
2019-03-06T16:52:26.694Z,14.19
2019-03-06T16:54:54.388Z,14.11
2019-03-06T16:57:23.859Z,14.05
2019-03-06T16:59:51.728Z,13.91
2019-03-06T17:02:19.157Z,14.13
2019-03-06T17:04:46.880Z,14.05
2019-03-06T17:07:14.424Z,14.23
2019-03-06T17:09:41.854Z,14.40
2019-03-06T17:12:09.709Z,14.26
2019-03-06T17:14:37.611Z,14.38
2019-03-06T17:17:05.610Z,14.49
2019-03-06T17:19:33.127Z,14.37
2019-03-06T17:22:00.777Z,14.18
2019-03-06T17:24:28.387Z,14.17
2019-03-06T17:26:55.776Z,14.03
2019-03-06T17:29:23.276Z,14.05
2019-03-06T17:31:50.828Z,14.04
2019-03-06T17:34:18.363Z,14.09
2019-03-06T17:36:46.312Z,14.13
2019-03-06T17:39:15.397Z,14.16
2019-03-06T17:41:42.930Z,13.59
2019-03-06T17:44:11.222Z,13.51
2019-03-06T17:46:38.891Z,13.55
2019-03-06T17:49:06.674Z,13.39
2019-03-06T17:51:34.268Z,13.17
2019-03-06T17:54:01.824Z,13.23
2019-03-06T17:56:29.604Z,12.97
2019-03-06T17:58:57.093Z,12.85
2019-03-06T18:01:24.737Z,12.76
2019-03-06T18:04:05.427Z,12.51
2019-03-06T18:06:32.932Z,12.34
2019-03-06T18:09:00.460Z,12.39
2019-03-06T18:11:27.948Z,12.36
2019-03-06T18:13:55.495Z,12.33
2019-03-06T18:16:23.072Z,12.36
2019-03-06T18:18:50.888Z,12.55
2019-03-06T18:21:18.392Z,12.44
2019-03-06T18:23:45.915Z,12.29
2019-03-06T18:26:13.465Z,12.14
2019-03-06T18:28:40.928Z,11.88
2019-03-06T18:31:08.625Z,11.67
2019-03-06T18:33:36.164Z,11.65
2019-03-06T18:36:03.772Z,11.54
2019-03-06T18:38:31.221Z,11.52
2019-03-06T18:40:58.785Z,11.60
2019-03-06T18:43:26.339Z,11.56
2019-03-06T18:45:53.823Z,11.53
2019-03-06T18:48:21.445Z,11.59
2019-03-06T18:50:49.053Z,11.43
2019-03-06T18:53:16.791Z,11.38
2019-03-06T18:55:44.232Z,11.34
2019-03-06T18:58:13.078Z,11.17
2019-03-06T19:00:41.136Z,11.00
2019-03-06T19:03:10.236Z,10.97
2019-03-06T19:05:37.860Z,10.98
2019-03-06T19:08:05.432Z,11.14
2019-03-06T19:10:33.735Z,11.22
2019-03-06T19:13:01.237Z,11.28
2019-03-06T19:15:29.207Z,11.10
2019-03-06T19:17:57.041Z,11.11
2019-03-06T19:20:24.751Z,10.71
2019-03-06T19:22:53.075Z,10.72
2019-03-06T19:25:21.073Z,10.47
2019-03-06T19:27:49.100Z,10.10
2019-03-06T19:30:18.648Z,9.88
2019-03-06T19:32:46.647Z,9.68
2019-03-06T19:35:14.631Z,9.61
2019-03-06T19:37:42.287Z,9.77
2019-03-06T19:40:10.055Z,10.09
2019-03-06T19:42:37.506Z,10.03
2019-03-06T19:45:05.638Z,10.15
2019-03-06T19:47:33.104Z,10.13
2019-03-06T19:50:00.666Z,10.12
2019-03-06T19:52:28.189Z,10.07
2019-03-06T19:54:55.628Z,10.20
2019-03-06T19:57:23.732Z,9.86
2019-03-06T19:59:51.612Z,9.64
2019-03-06T20:02:19.281Z,9.41
2019-03-06T20:04:46.823Z,9.33
2019-03-06T20:07:14.288Z,9.44
2019-03-06T20:09:41.764Z,9.50
2019-03-06T20:12:09.332Z,9.59
2019-03-06T20:14:37.051Z,9.71
2019-03-06T20:17:04.758Z,9.77
2019-03-06T20:19:32.460Z,9.72
2019-03-06T20:22:02.036Z,9.73
2019-03-06T20:24:29.740Z,9.78
2019-03-06T20:26:57.159Z,9.87
2019-03-06T20:29:25.039Z,9.78
2019-03-06T20:31:53.088Z,9.85
2019-03-06T20:34:20.579Z,9.86
2019-03-06T20:36:48.257Z,9.72
2019-03-06T20:39:16.387Z,9.73
2019-03-06T20:41:44.120Z,9.83
2019-03-06T20:44:11.799Z,9.85
2019-03-06T20:46:39.263Z,9.78
2019-03-06T20:49:06.782Z,9.55
2019-03-06T20:51:34.377Z,9.41
2019-03-06T20:54:02.157Z,9.57
2019-03-06T20:56:29.748Z,9.58
2019-03-06T20:58:57.867Z,9.50
2019-03-06T21:01:25.913Z,9.49
2019-03-06T21:03:53.586Z,9.58
2019-03-06T21:06:21.806Z,9.71
2019-03-06T21:08:49.245Z,9.76
2019-03-06T21:11:16.876Z,9.74
2019-03-06T21:13:44.425Z,9.67
2019-03-06T21:16:11.811Z,9.59
2019-03-06T21:18:39.507Z,9.58
2019-03-06T21:21:07.059Z,9.42
2019-03-06T21:23:34.566Z,9.37
2019-03-06T21:26:02.166Z,9.25
2019-03-06T21:28:29.605Z,9.38
2019-03-06T21:30:57.181Z,9.30
2019-03-06T21:33:24.644Z,9.22
2019-03-06T21:35:52.415Z,9.10
2019-03-06T21:38:20.413Z,9.07
2019-03-06T21:40:47.852Z,9.16
2019-03-06T21:43:15.313Z,9.06
2019-03-06T21:45:42.804Z,8.89
2019-03-06T21:48:10.291Z,8.94
2019-03-06T21:50:37.754Z,8.89
2019-03-06T21:53:05.317Z,8.95
2019-03-06T21:55:32.759Z,8.91
2019-03-06T21:58:00.224Z,8.72
2019-03-06T22:00:27.605Z,8.67
2019-03-06T22:02:55.102Z,8.49
2019-03-06T22:05:22.642Z,8.51
2019-03-06T22:07:50.860Z,8.40
2019-03-06T22:10:18.974Z,8.30
2019-03-06T22:12:46.402Z,8.20
2019-03-06T22:15:14.216Z,8.03
2019-03-06T22:17:41.682Z,8.09
2019-03-06T22:20:10.157Z,8.00
2019-03-06T22:22:37.631Z,7.99
2019-03-06T22:25:05.416Z,7.98
2019-03-06T22:27:33.286Z,8.00
2019-03-06T22:30:00.724Z,8.08
2019-03-06T22:32:28.121Z,7.75
2019-03-06T22:34:55.637Z,7.90
2019-03-06T22:37:23.117Z,7.80
2019-03-06T22:39:50.552Z,7.79
2019-03-06T22:42:17.976Z,7.88
2019-03-06T22:44:45.429Z,7.99
2019-03-06T22:47:12.906Z,8.13
2019-03-06T22:49:40.367Z,8.16
2019-03-06T22:52:07.773Z,8.01
2019-03-06T22:54:35.386Z,7.97
2019-03-06T22:57:02.842Z,8.05
2019-03-06T22:59:30.276Z,7.99
2019-03-06T23:01:58.116Z,7.99
2019-03-06T23:04:25.581Z,7.89
2019-03-06T23:06:53.054Z,7.91
2019-03-06T23:09:20.687Z,7.95
2019-03-06T23:11:48.253Z,7.98
2019-03-06T23:14:15.816Z,8.09
2019-03-06T23:16:43.214Z,8.07
2019-03-06T23:19:10.631Z,8.09
2019-03-06T23:21:38.217Z,8.00
2019-03-06T23:24:05.642Z,7.94
2019-03-06T23:26:42.245Z,7.98
2019-03-06T23:29:02.545Z,7.97
2019-03-06T23:31:29.985Z,7.82
2019-03-06T23:33:57.572Z,7.91
2019-03-06T23:36:25.025Z,8.00
2019-03-06T23:38:52.476Z,7.90
2019-03-06T23:41:19.886Z,7.93
2019-03-06T23:43:47.388Z,8.07
2019-03-06T23:46:14.847Z,7.96
2019-03-06T23:48:42.308Z,7.93
2019-03-06T23:51:16.353Z,7.61
2019-03-06T23:53:54.444Z,7.63
2019-03-06T23:56:22.010Z,7.71
2019-03-06T23:58:49.446Z,7.63
